Time;durP1;ratioP1;P1;durP2;ratioP2;P2;SDS_P1;SDS_P2;PMS_P1;PMS_P2;Temp;Humidity;BMP_temperature;BMP_pressure;BME280_temperature;BME280_humidity;BME280_pressure;Samples;Min_cycle;Max_cycle;Signal;HPM_P1;HPM_P2
2021/12/06 00:00:47;;;;;;;1.63;0.70;;;21.80;60.10;;;;;;4165445;28;19935;-58
2021/12/06 00:02:51;;;;;;;2.22;1.00;;;21.70;60.00;;;;;;4164144;28;20140;-58
2021/12/06 00:04:54;;;;;;;4.10;1.17;;;21.70;60.10;;;;;;4166470;28;21275;-58
2021/12/06 00:07:00;;;;;;;3.35;0.90;;;21.80;60.20;;;;;;4170303;28;20040;-59
2021/12/06 00:09:07;;;;;;;2.83;0.98;;;21.80;60.10;;;;;;4174529;28;20060;-58
2021/12/06 00:11:11;;;;;;;2.95;0.90;;;21.80;60.20;;;;;;4170643;28;20140;-57
2021/12/06 00:13:13;;;;;;;1.85;0.77;;;21.80;60.10;;;;;;4165373;28;20071;-56
2021/12/06 00:15:16;;;;;;;2.75;1.08;;;21.80;60.20;;;;;;4163497;28;20106;-57
2021/12/06 00:17:19;;;;;;;2.47;0.95;;;21.70;60.10;;;;;;4174546;28;20055;-57
2021/12/06 00:19:21;;;;;;;5.47;1.10;;;21.80;60.10;;;;;;4165691;28;22063;-57
2021/12/06 00:21:24;;;;;;;2.03;0.90;;;21.80;60.10;;;;;;4166785;28;20056;-58
2021/12/06 00:23:27;;;;;;;;;;;21.80;60.10;;;;;;4164940;28;20125;-58
2021/12/06 00:25:29;;;;;;;4.10;0.88;;;21.80;60.10;;;;;;4173563;28;19927;-58
2021/12/06 00:27:32;;;;;;;1.67;0.90;;;21.80;60.10;;;;;;4161641;28;20183;-58
2021/12/06 00:29:34;;;;;;;0.88;0.50;;;21.80;60.10;;;;;;4164702;28;20574;-58
2021/12/06 00:31:37;;;;;;;2.58;0.90;;;21.80;60.20;;;;;;4167051;28;21300;-58
2021/12/06 00:33:40;;;;;;;3.03;0.60;;;21.80;60.80;;;;;;4171553;28;20052;-58
2021/12/06 00:35:42;;;;;;;1.48;0.70;;;21.80;60.10;;;;;;4163986;28;20064;-58
2021/12/06 00:37:53;;;;;;;0.80;0.52;;;21.80;60.10;;;;;;4164809;28;20162;-58
2021/12/06 00:39:59;;;;;;;1.70;0.85;;;21.80;60.10;;;;;;4162851;28;20044;-58
2021/12/06 00:42:01;;;;;;;1.63;0.80;;;21.80;60.10;;;;;;4170537;28;20137;-58
2021/12/06 00:44:04;;;;;;;1.45;0.70;;;21.80;60.00;;;;;;4170046;28;20044;-58
2021/12/06 00:46:06;;;;;;;1.20;0.50;;;21.80;60.00;;;;;;4165618;28;20056;-58
2021/12/06 00:48:09;;;;;;;2.28;0.73;;;21.90;60.10;;;;;;4164458;28;20485;-58
2021/12/06 00:50:12;;;;;;;2.08;0.80;;;21.90;60.10;;;;;;4173724;28;20428;-58
2021/12/06 00:52:15;;;;;;;1.30;0.57;;;21.90;60.10;;;;;;4166408;28;20166;-58
2021/12/06 00:54:17;;;;;;;1.17;0.60;;;21.90;60.10;;;;;;4164379;28;20134;-58
2021/12/06 00:56:19;;;;;;;1.63;0.60;;;21.90;60.00;;;;;;4164251;28;20176;-58
2021/12/06 00:58:22;;;;;;;1.85;0.73;;;21.90;60.00;;;;;;4171819;28;20044;-58
2021/12/06 01:02:15;;;;;;;1.85;0.63;;;21.90;59.40;;;;;;4194690;27;20427;-59
2021/12/06 01:04:17;;;;;;;1.25;0.50;;;21.90;60.00;;;;;;4173224;28;20157;-59
2021/12/06 01:06:20;;;;;;;1.00;0.43;;;21.90;59.90;;;;;;4169963;28;20117;-58
2021/12/06 01:08:23;;;;;;;1.05;0.60;;;21.90;59.90;;;;;;4172144;28;20048;-59
2021/12/06 01:10:27;;;;;;;1.88;0.68;;;22.00;60.00;;;;;;4178191;28;20059;-59
2021/12/06 01:12:29;;;;;;;1.67;0.90;;;22.00;60.00;;;;;;4170145;28;20047;-60
2021/12/06 01:14:32;;;;;;;1.52;0.90;;;22.00;60.00;;;;;;4170181;28;20190;-59
2021/12/06 01:16:34;;;;;;;1.50;0.82;;;22.00;60.00;;;;;;4171829;28;20093;-59
2021/12/06 01:18:38;;;;;;;1.75;0.40;;;22.00;60.00;;;;;;4177220;28;20053;-59
2021/12/06 01:20:51;;;;;;;0.88;0.50;;;22.00;60.00;;;;;;4169091;28;20063;-59
2021/12/06 01:23:01;;;;;;;;;;;22.00;60.10;;;;;;4171616;28;20060;-59
2021/12/06 01:25:15;;;;;;;1.35;0.75;;;22.00;60.00;;;;;;4169846;28;19928;-59
2021/12/06 01:40:44;;;;;;;0.88;0.50;;;22.00;60.00;;;;;;4169013;28;20459;-59
2021/12/06 01:42:46;;;;;;;0.40;0.40;;;22.00;60.00;;;;;;4180370;28;20048;-59
2021/12/06 01:44:55;;;;;;;1.58;0.73;;;22.00;59.90;;;;;;4166048;28;20044;-59
2021/12/06 01:47:01;;;;;;;0.57;0.50;;;22.00;59.90;;;;;;4171735;28;20070;-59
2021/12/06 01:49:05;;;;;;;1.38;0.68;;;22.00;60.20;;;;;;4168418;28;20578;-59
2021/12/06 01:51:07;;;;;;;0.80;0.60;;;22.00;59.90;;;;;;4168873;28;20052;-60
2021/12/06 01:53:09;;;;;;;1.10;0.60;;;22.00;59.90;;;;;;4176878;28;20051;-59
2021/12/06 01:55:22;;;;;;;0.50;0.40;;;22.10;60.00;;;;;;4149100;28;20066;-59
2021/12/06 01:57:27;;;;;;;1.65;0.68;;;22.10;60.10;;;;;;4149454;28;20878;-59
2021/12/06 01:59:30;;;;;;;0.73;0.50;;;22.10;59.90;;;;;;4149600;28;20535;-61
2021/12/06 02:01:32;;;;;;;1.58;0.70;;;22.10;59.90;;;;;;4151989;28;20503;-62
2021/12/06 02:03:34;;;;;;;1.57;0.70;;;22.10;60.00;;;;;;4158063;28;20052;-60
2021/12/06 02:05:38;;;;;;;1.02;0.60;;;22.10;60.10;;;;;;4149395;28;20059;-57
2021/12/06 02:07:41;;;;;;;0.90;0.50;;;22.10;60.30;;;;;;4133789;28;20148;-59
2021/12/06 02:09:45;;;;;;;1.98;0.57;;;22.20;60.50;;;;;;4152087;28;20053;-58
2021/12/06 02:11:48;;;;;;;1.90;0.77;;;22.20;60.40;;;;;;4156973;28;20831;-63
2021/12/06 02:14:47;;;;;;;1.77;0.80;;;22.30;60.40;;;;;;4136960;28;21251;-62
2021/12/06 02:16:13;;;;;;;1.75;0.55;;;22.30;60.80;;;;;;4139040;28;20052;-61
2021/12/06 02:18:43;;;;;;;1.35;0.60;;;22.30;61.00;;;;;;4137279;28;20060;-61
2021/12/06 02:20:49;;;;;;;0.82;0.43;;;;;;;;;;4147289;28;20048;-59
2021/12/06 02:22:52;;;;;;;0.52;0.43;;;;;;;;;;4145588;28;20057;-59
2021/12/06 02:24:55;;;;;;;2.25;0.65;;;;;;;;;;4142325;28;20768;-58
2021/12/06 02:26:56;;;;;;;;;;;;;;;;;;4137053;28;20124;-59
2021/12/06 02:28:58;;;;;;;3.33;0.73;;;;;;;;;;4140722;28;19921;-58
2021/12/06 02:31:01;;;;;;;1.42;0.75;;;22.30;61.00;;;;;;4145153;28;20532;-59
2021/12/06 02:33:03;;;;;;;3.58;0.60;;;22.50;62.30;;;;;;4138628;28;20155;-59
2021/12/06 02:35:10;;;;;;;0.88;0.65;;;22.50;61.60;;;;;;4139059;28;20056;-61
2021/12/06 02:37:15;;;;;;;3.70;0.45;;;22.50;61.90;;;;;;4138590;28;20052;-60
2021/12/06 02:39:23;;;;;;;3.88;0.73;;;22.50;62.10;;;;;;4147835;28;20056;-60
2021/12/06 02:41:26;;;;;;;2.30;0.47;;;22.60;62.20;;;;;;4147827;28;20577;-59
2021/12/06 02:43:28;;;;;;;2.05;0.55;;;22.60;62.10;;;;;;4138854;28;20061;-60
2021/12/06 02:45:31;;;;;;;2.00;0.33;;;22.60;62.10;;;;;;4140520;28;20107;-59
2021/12/06 02:47:34;;;;;;;1.23;0.63;;;22.60;62.00;;;;;;4146972;28;20037;-60
2021/12/06 02:49:36;;;;;;;2.88;1.05;;;22.70;62.10;;;;;;4147369;28;21893;-60
2021/12/06 02:51:39;;;;;;;1.55;0.40;;;22.70;62.10;;;;;;4141644;28;20069;-64
2021/12/06 02:53:41;;;;;;;1.33;0.40;;;22.70;62.10;;;;;;4142889;28;20478;-58
2021/12/06 02:55:44;;;;;;;1.53;0.57;;;22.70;62.00;;;;;;4150309;28;20780;-63
2021/12/06 02:57:47;;;;;;;3.03;0.50;;;22.80;62.20;;;;;;4145527;28;20380;-61
2021/12/06 02:59:49;;;;;;;1.02;0.50;;;22.80;62.10;;;;;;4141085;28;21194;-63
2021/12/06 03:01:59;;;;;;;1.63;0.57;;;22.80;62.20;;;;;;4144382;28;20087;-60
2021/12/06 03:04:03;;;;;;;0.90;0.57;;;22.90;62.10;;;;;;4148583;28;20348;-62
2021/12/06 03:06:05;;;;;;;1.10;0.50;;;22.90;62.00;;;;;;4151962;28;20657;-62
2021/12/06 03:08:08;;;;;;;1.48;0.60;;;22.90;61.90;;;;;;4144243;28;20054;-59
2021/12/06 03:10:10;;;;;;;0.63;0.30;;;22.90;61.90;;;;;;4145992;28;20080;-60
2021/12/06 03:12:19;;;;;;;1.27;0.63;;;23.00;62.00;;;;;;4149409;28;20175;-64
2021/12/06 03:14:25;;;;;;;1.55;0.43;;;23.00;61.90;;;;;;4154192;28;20053;-62
2021/12/06 03:16:27;;;;;;;1.42;0.28;;;23.00;61.90;;;;;;4148459;28;20049;-61
2021/12/06 03:18:30;;;;;;;0.98;0.40;;;23.00;61.70;;;;;;4142146;28;20076;-65
2021/12/06 03:20:32;;;;;;;0.50;0.30;;;23.00;61.80;;;;;;4146884;28;20144;-60
2021/12/06 03:22:34;;;;;;;1.05;0.30;;;23.10;61.80;;;;;;4158516;28;20663;-59
2021/12/06 03:24:37;;;;;;;1.33;0.40;;;23.10;61.70;;;;;;4150516;28;21046;-59
2021/12/06 03:26:40;;;;;;;2.03;0.50;;;23.20;61.70;;;;;;4150780;28;20041;-60
2021/12/06 03:28:43;;;;;;;;;;;23.20;61.70;;;;;;4148437;28;20045;-60
2021/12/06 03:30:45;;;;;;;2.47;0.50;;;23.20;61.70;;;;;;4139962;28;19929;-63
2021/12/06 03:32:47;;;;;;;7.10;0.60;;;23.20;61.70;;;;;;4144825;28;20048;-60
2021/12/06 03:34:49;;;;;;;1.10;0.40;;;23.20;61.70;;;;;;4142875;28;20516;-60
2021/12/06 03:36:52;;;;;;;1.05;0.60;;;23.20;61.60;;;;;;4148813;28;20481;-63
2021/12/06 03:38:56;;;;;;;0.77;0.50;;;23.30;61.70;;;;;;4149871;28;20063;-61
2021/12/06 03:40:58;;;;;;;0.40;0.40;;;23.30;61.60;;;;;;4139988;28;20122;-57
2021/12/06 03:43:01;;;;;;;1.02;0.63;;;23.30;61.50;;;;;;4139139;28;20057;-61
2021/12/06 03:45:06;;;;;;;2.65;0.40;;;23.30;61.50;;;;;;4147030;28;20091;-60
2021/12/06 03:47:21;;;;;;;0.30;0.30;;;23.40;61.60;;;;;;4149608;28;20053;-60
2021/12/06 03:49:23;;;;;;;2.55;0.40;;;23.40;61.50;;;;;;4147887;28;20071;-60
2021/12/06 03:51:26;;;;;;;1.00;0.60;;;23.40;61.50;;;;;;4143032;28;20044;-58
2021/12/06 03:53:29;;;;;;;2.83;0.50;;;23.40;61.30;;;;;;4141619;28;20353;-59
2021/12/06 03:55:31;;;;;;;2.90;0.38;;;23.50;61.40;;;;;;4140926;28;20045;-62
2021/12/06 03:57:34;;;;;;;0.85;0.50;;;23.50;61.40;;;;;;4148612;28;20110;-63
2021/12/06 03:59:37;;;;;;;2.97;0.68;;;23.50;61.00;;;;;;4141876;28;20531;-58
2021/12/06 04:02:11;;;;;;;1.20;0.68;;;23.50;60.50;;;;;;4192383;27;20415;-61
2021/12/06 04:04:15;;;;;;;2.00;0.50;;;23.50;61.00;;;;;;4166094;28;20079;-64
2021/12/06 04:06:17;;;;;;;1.75;0.30;;;23.60;61.10;;;;;;4170662;28;20080;-61
2021/12/06 04:08:19;;;;;;;1.75;0.55;;;23.60;61.00;;;;;;4160867;28;20048;-60
2021/12/06 04:10:25;;;;;;;2.13;0.65;;;23.60;61.00;;;;;;4162087;28;20151;-61
2021/12/06 04:12:27;;;;;;;0.40;0.40;;;23.60;61.00;;;;;;4163588;28;20052;-57
2021/12/06 04:14:29;;;;;;;2.38;0.52;;;23.60;60.90;;;;;;4170690;28;20422;-59
2021/12/06 04:16:31;;;;;;;0.52;0.40;;;23.60;60.90;;;;;;4159380;28;20052;-60
2021/12/06 04:18:34;;;;;;;1.77;0.53;;;23.60;60.80;;;;;;4160521;28;20068;-59
2021/12/06 04:20:37;;;;;;;3.25;0.57;;;23.70;60.90;;;;;;4168419;28;20048;-59
2021/12/06 04:22:41;;;;;;;1.20;0.50;;;23.70;60.80;;;;;;4164235;28;20052;-65
2021/12/06 04:24:43;;;;;;;4.32;1.02;;;23.70;60.90;;;;;;4160879;28;20119;-60
2021/12/06 04:26:46;;;;;;;6.13;1.03;;;23.70;60.70;;;;;;4161463;28;20048;-61
2021/12/06 04:28:57;;;;;;;3.85;1.20;;;23.80;60.70;;;;;;4168975;28;20075;-61
2021/12/06 04:30:59;;;;;;;5.70;0.80;;;23.70;60.50;;;;;;4170734;28;20428;-60
2021/12/06 04:33:02;;;;;;;2.90;0.90;;;23.80;60.50;;;;;;4162408;28;20048;-60
2021/12/06 04:35:05;;;;;;;2.65;0.93;;;23.80;60.50;;;;;;4161412;28;20053;-60
2021/12/06 04:37:07;;;;;;;;;;;23.80;60.40;;;;;;4161422;28;20138;-60
2021/12/06 04:39:13;;;;;;;3.67;0.50;;;23.80;60.40;;;;;;4170118;28;20070;-60
2021/12/06 04:41:15;;;;;;;3.90;0.50;;;23.80;60.40;;;;;;4163692;28;20049;-60
2021/12/06 04:43:18;;;;;;;4.85;0.60;;;23.80;60.40;;;;;;4161941;28;22074;-59
2021/12/06 04:45:20;;;;;;;2.15;0.40;;;23.80;60.30;;;;;;4158449;28;20063;-58
2021/12/06 04:47:23;;;;;;;17.63;1.23;;;23.80;60.30;;;;;;4166226;28;20052;-54
2021/12/06 04:49:28;;;;;;;1.15;0.47;;;23.80;60.40;;;;;;4157276;28;20133;-57
2021/12/06 04:51:30;;;;;;;3.10;0.40;;;23.80;60.40;;;;;;4159771;28;20770;-58
2021/12/06 04:53:36;;;;;;;0.83;0.60;;;23.80;60.40;;;;;;4158459;28;20052;-58
2021/12/06 04:55:59;;;;;;;0.70;0.60;;;23.80;60.50;;;;;;4167900;28;20873;-57
2021/12/06 04:58:04;;;;;;;4.07;0.68;;;23.80;60.40;;;;;;4157348;28;20044;-55
2021/12/06 05:00:14;;;;;;;3.30;0.47;;;23.80;60.40;;;;;;4161097;28;20045;-56
2021/12/06 05:02:25;;;;;;;1.65;0.82;;;23.80;60.40;;;;;;4164023;28;20074;-57
2021/12/06 05:04:31;;;;;;;1.98;0.77;;;23.80;60.20;;;;;;4163334;28;20052;-58
2021/12/06 05:06:36;;;;;;;0.80;0.50;;;23.80;60.30;;;;;;4162461;28;20051;-56
2021/12/06 05:08:43;;;;;;;1.27;0.47;;;23.80;60.40;;;;;;4154587;28;20097;-56
2021/12/06 05:10:46;;;;;;;1.13;0.63;;;23.80;60.40;;;;;;4152241;28;20163;-57
2021/12/06 05:12:49;;;;;;;0.60;0.43;;;23.80;60.40;;;;;;4146961;28;20078;-60
2021/12/06 05:14:51;;;;;;;3.75;0.73;;;23.80;60.40;;;;;;4155053;28;20687;-58
2021/12/06 05:16:55;;;;;;;1.65;0.75;;;23.80;60.40;;;;;;4151770;28;20048;-58
2021/12/06 05:18:56;;;;;;;;;;;23.80;60.40;;;;;;4147686;28;20087;-59
2021/12/06 05:20:58;;;;;;;3.30;0.60;;;23.80;60.50;;;;;;4148927;28;20026;-58
2021/12/06 05:23:01;;;;;;;1.60;0.40;;;23.80;60.70;;;;;;4155940;28;20074;-56
2021/12/06 05:25:06;;;;;;;2.53;0.73;;;23.80;60.60;;;;;;4148437;28;20059;-57
2021/12/06 05:27:09;;;;;;;1.50;0.40;;;23.90;60.70;;;;;;4149066;28;20185;-54
2021/12/06 05:29:13;;;;;;;2.05;0.70;;;23.90;60.70;;;;;;4148397;28;20511;-57
2021/12/06 05:31:19;;;;;;;5.05;0.60;;;23.90;60.70;;;;;;4153413;28;21232;-58
2021/12/06 05:33:29;;;;;;;1.58;0.40;;;23.90;60.70;;;;;;4155445;28;20137;-57
2021/12/06 05:35:31;;;;;;;1.55;0.73;;;23.90;60.70;;;;;;4158261;28;20040;-57
2021/12/06 05:37:43;;;;;;;0.82;0.40;;;24.00;60.70;;;;;;4147694;28;20701;-58
2021/12/06 05:39:46;;;;;;;0.63;0.40;;;23.90;60.60;;;;;;4149803;28;21119;-53
2021/12/06 05:41:48;;;;;;;0.90;0.40;;;24.00;60.60;;;;;;4147081;28;20068;-55
2021/12/06 05:43:50;;;;;;;2.88;0.57;;;24.00;60.70;;;;;;4152374;28;20045;-55
2021/12/06 05:45:53;;;;;;;1.33;0.52;;;24.00;60.60;;;;;;4152982;28;20180;-57
2021/12/06 05:47:56;;;;;;;0.73;0.43;;;24.00;60.70;;;;;;4149467;28;20049;-53
2021/12/06 05:49:58;;;;;;;0.52;0.40;;;24.00;61.20;;;;;;4148278;28;20078;-58
2021/12/06 05:52:00;;;;;;;1.45;0.40;;;24.00;60.50;;;;;;4153277;28;20045;-58
2021/12/06 05:54:03;;;;;;;1.20;0.40;;;24.00;60.40;;;;;;4138342;28;20523;-54
2021/12/06 05:56:05;;;;;;;0.75;0.30;;;24.10;60.50;;;;;;4150806;28;20530;-56
2021/12/06 05:58:10;;;;;;;0.52;0.50;;;24.10;60.50;;;;;;4147062;28;20399;-51
2021/12/06 06:00:15;;;;;;;1.00;0.47;;;24.10;60.60;;;;;;4148880;28;20060;-53
2021/12/06 06:02:18;;;;;;;0.60;0.40;;;24.10;60.50;;;;;;4152181;28;20068;-59
2021/12/06 06:04:20;;;;;;;2.08;0.50;;;24.10;60.50;;;;;;4159791;28;21723;-52
2021/12/06 06:06:22;;;;;;;0.88;0.47;;;24.10;60.60;;;;;;4177880;28;20049;-55
2021/12/06 06:08:25;;;;;;;0.73;0.38;;;24.10;60.50;;;;;;4182644;28;20064;-54
2021/12/06 06:10:30;;;;;;;0.80;0.70;;;24.10;60.50;;;;;;4180842;28;20587;-54
2021/12/06 06:12:33;;;;;;;0.60;0.40;;;24.20;60.50;;;;;;4177792;28;20058;-55
2021/12/06 06:14:35;;;;;;;1.77;0.50;;;24.20;60.40;;;;;;4179336;28;20064;-56
2021/12/06 06:16:47;;;;;;;1.80;0.60;;;24.20;61.20;;;;;;4176350;28;20044;-56
2021/12/06 06:18:51;;;;;;;2.05;0.60;;;24.20;60.50;;;;;;4177573;28;20084;-55
2021/12/06 06:20:55;;;;;;;0.82;0.50;;;24.20;60.40;;;;;;4177836;28;20060;-58
2021/12/06 06:22:58;;;;;;;0.93;0.55;;;24.20;60.40;;;;;;4175834;28;20059;-60
2021/12/06 06:25:00;;;;;;;0.38;0.30;;;24.20;60.40;;;;;;4180969;28;20045;-58
2021/12/06 06:27:02;;;;;;;1.85;0.60;;;24.20;60.40;;;;;;4181080;28;20048;-60
2021/12/06 06:29:05;;;;;;;3.25;0.60;;;24.30;60.20;;;;;;4182218;28;20059;-58
2021/12/06 06:31:08;;;;;;;2.65;0.55;;;24.30;60.10;;;;;;4177058;28;20083;-58
2021/12/06 06:33:10;;;;;;;1.97;0.50;;;24.20;60.10;;;;;;4177346;28;20243;-54
2021/12/06 06:35:15;;;;;;;2.57;0.67;;;24.30;60.10;;;;;;4180845;28;20063;-56
2021/12/06 06:37:17;;;;;;;1.58;0.50;;;24.30;60.00;;;;;;4180556;28;20048;-58
2021/12/06 06:39:21;;;;;;;2.20;0.60;;;24.30;60.00;;;;;;4180832;28;20048;-59
2021/12/06 06:41:25;;;;;;;1.95;0.50;;;24.30;59.90;;;;;;4179750;28;20590;-59
2021/12/06 06:43:27;;;;;;;0.52;0.50;;;24.20;59.90;;;;;;4181490;28;20131;-57
2021/12/06 06:45:29;;;;;;;0.30;0.30;;;24.20;59.90;;;;;;4180410;28;20048;-58
2021/12/06 06:47:31;;;;;;;4.60;0.68;;;24.20;60.00;;;;;;4180656;28;20490;-58
2021/12/06 06:49:33;;;;;;;3.17;0.65;;;24.20;60.20;;;;;;4180571;28;20096;-53
2021/12/06 06:51:35;;;;;;;1.17;0.47;;;24.20;60.20;;;;;;4180593;28;20048;-56
2021/12/06 06:53:37;;;;;;;1.08;0.52;;;24.20;60.20;;;;;;4179236;28;20162;-55
2021/12/06 06:55:40;;;;;;;0.43;0.32;;;24.20;60.20;;;;;;4181424;28;20068;-58
2021/12/06 06:57:44;;;;;;;1.48;0.40;;;24.20;60.20;;;;;;4178663;28;20911;-55
2021/12/06 06:59:47;;;;;;;1.75;0.40;;;24.20;60.40;;;;;;4181134;28;20048;-59
2021/12/06 07:02:14;;;;;;;1.67;0.35;;;24.20;59.70;;;;;;4190831;27;20437;-58
2021/12/06 07:04:16;;;;;;;1.83;0.60;;;24.20;60.40;;;;;;4190493;28;20482;-58
2021/12/06 07:06:18;;;;;;;8.20;0.65;;;24.20;60.50;;;;;;4189787;28;20052;-58
2021/12/06 07:08:20;;;;;;;1.65;0.63;;;24.20;60.40;;;;;;4190192;28;20044;-56
2021/12/06 07:10:25;;;;;;;1.40;0.35;;;24.20;60.60;;;;;;4191063;28;20052;-56
2021/12/06 07:12:28;;;;;;;0.70;0.40;;;24.20;60.50;;;;;;4189697;28;20059;-57
2021/12/06 07:14:30;;;;;;;0.45;0.40;;;24.20;60.60;;;;;;4191178;28;20056;-52
2021/12/06 07:16:32;;;;;;;2.45;0.70;;;24.20;60.70;;;;;;4190388;28;20131;-58
2021/12/06 07:18:34;;;;;;;1.92;0.50;;;24.20;60.80;;;;;;4191768;28;20083;-56
2021/12/06 07:20:38;;;;;;;0.82;0.73;;;24.20;60.80;;;;;;4191738;28;20049;-53
2021/12/06 07:22:41;;;;;;;1.42;0.55;;;24.20;60.80;;;;;;4192491;28;20058;-58
2021/12/06 07:24:43;;;;;;;0.82;0.40;;;24.20;60.90;;;;;;4192368;28;20055;-54
2021/12/06 07:26:45;;;;;;;1.85;0.50;;;24.20;60.90;;;;;;4193689;28;20040;-56
2021/12/06 07:28:50;;;;;;;1.73;0.57;;;24.20;60.80;;;;;;4193693;28;20078;-57
2021/12/06 07:30:52;;;;;;;1.98;0.60;;;24.20;60.90;;;;;;4195952;28;20053;-58
2021/12/06 07:32:56;;;;;;;2.50;0.50;;;24.10;60.80;;;;;;4196499;28;20442;-58
2021/12/06 07:34:58;;;;;;;3.40;0.85;;;24.20;60.80;;;;;;4197213;28;20124;-57
2021/12/06 07:37:00;;;;;;;0.32;0.22;;;24.10;60.80;;;;;;4194607;28;20053;-55
2021/12/06 07:39:03;;;;;;;2.65;0.57;;;24.10;60.80;;;;;;4193140;28;20076;-58
2021/12/06 07:41:08;;;;;;;1.65;0.57;;;24.10;60.80;;;;;;4191386;28;20463;-57
2021/12/06 07:43:10;;;;;;;0.60;0.30;;;24.10;60.80;;;;;;4190732;28;20055;-57
2021/12/06 07:45:13;;;;;;;1.65;0.40;;;24.10;60.80;;;;;;4187445;28;20052;-56
2021/12/06 07:47:16;;;;;;;0.82;0.50;;;24.10;60.80;;;;;;4189131;28;20045;-55
2021/12/06 07:49:19;;;;;;;1.35;0.50;;;24.10;60.90;;;;;;4191585;28;20055;-55
2021/12/06 07:51:26;;;;;;;5.50;1.20;;;24.10;60.70;;;;;;4191285;28;20048;-56
2021/12/06 07:53:33;;;;;;;3.28;1.30;;;24.10;58.80;;;;;;4188978;28;20128;-56
2021/12/06 07:55:36;;;;;;;3.75;1.70;;;24.00;57.80;;;;;;4174868;28;20053;-56
2021/12/06 07:57:38;;;;;;;3.28;1.15;;;24.00;58.10;;;;;;4176783;28;20052;-56
2021/12/06 07:59:41;;;;;;;3.15;1.23;;;24.00;57.40;;;;;;4174473;28;20143;-57
2021/12/06 08:01:43;;;;;;;4.68;1.70;;;24.00;57.30;;;;;;4173890;28;20076;-60
2021/12/06 08:03:45;;;;;;;1.67;1.05;;;24.00;57.80;;;;;;4173539;28;20057;-58
2021/12/06 08:05:52;;;;;;;5.83;1.40;;;24.00;57.70;;;;;;4174159;28;20057;-59
2021/12/06 08:07:54;;;;;;;4.47;1.30;;;23.90;57.80;;;;;;4174101;28;20053;-58
2021/12/06 08:09:56;;;;;;;5.07;0.98;;;23.90;58.20;;;;;;4172611;28;20161;-60
2021/12/06 08:11:59;;;;;;;6.78;1.30;;;23.90;58.50;;;;;;4154279;28;20049;-60
2021/12/06 08:14:02;;;;;;;4.05;0.93;;;23.90;58.90;;;;;;4162329;28;20796;-57
2021/12/06 08:16:08;;;;;;;2.63;1.27;;;23.90;60.10;;;;;;4162913;28;20045;-59
2021/12/06 08:18:10;;;;;;;3.60;0.85;;;23.90;59.70;;;;;;4163370;28;20126;-59
2021/12/06 08:20:13;;;;;;;0.93;0.50;;;23.90;60.00;;;;;;4162648;28;20044;-60
2021/12/06 08:22:15;;;;;;;4.38;0.75;;;23.90;60.00;;;;;;4162391;28;20041;-58
2021/12/06 08:24:17;;;;;;;1.60;0.60;;;23.90;60.10;;;;;;4162899;28;20045;-62
2021/12/06 08:26:24;;;;;;;2.00;0.57;;;23.90;60.10;;;;;;4160968;28;20685;-60
2021/12/06 08:28:28;;;;;;;1.13;0.55;;;23.90;60.30;;;;;;4162586;28;20176;-59
2021/12/06 08:30:30;;;;;;;1.00;0.47;;;23.90;60.30;;;;;;4162690;28;20037;-60
2021/12/06 08:32:33;;;;;;;1.63;0.73;;;23.90;60.40;;;;;;4163548;28;20140;-58
2021/12/06 08:34:35;;;;;;;0.60;0.32;;;23.90;60.40;;;;;;4179684;28;20211;-58
2021/12/06 08:36:37;;;;;;;2.00;0.70;;;23.90;60.50;;;;;;4163073;28;20041;-58
2021/12/06 08:38:40;;;;;;;0.60;0.25;;;23.90;60.50;;;;;;4160926;28;20047;-60
2021/12/06 08:40:44;;;;;;;1.02;0.55;;;23.90;60.50;;;;;;4162738;28;20993;-62
2021/12/06 08:42:47;;;;;;;0.50;0.30;;;24.00;60.60;;;;;;4160332;28;20068;-59
2021/12/06 08:44:50;;;;;;;1.67;0.68;;;24.00;60.50;;;;;;4159993;28;20049;-58
2021/12/06 08:46:53;;;;;;;1.10;0.32;;;24.00;60.60;;;;;;4161159;28;20053;-59
2021/12/06 08:48:56;;;;;;;1.80;0.50;;;24.00;60.70;;;;;;4160980;28;20106;-62
2021/12/06 08:51:05;;;;;;;1.40;0.65;;;24.00;60.70;;;;;;4159307;28;20855;-62
2021/12/06 08:53:07;;;;;;;1.00;0.43;;;24.00;60.80;;;;;;4160702;28;20052;-59
2021/12/06 08:55:10;;;;;;;0.85;0.50;;;23.90;60.90;;;;;;4160881;28;20143;-60
2021/12/06 08:57:12;;;;;;;0.45;0.35;;;24.00;60.80;;;;;;4160164;28;20048;-59
2021/12/06 08:59:15;;;;;;;1.13;0.40;;;24.00;60.80;;;;;;4160332;28;20048;-60
2021/12/06 09:01:18;;;;;;;2.40;0.68;;;24.00;61.40;;;;;;4159427;28;20152;-57
2021/12/06 09:03:23;;;;;;;2.67;0.80;;;24.00;60.90;;;;;;4159963;28;20057;-59
2021/12/06 09:05:31;;;;;;;1.48;0.40;;;24.00;61.00;;;;;;4160018;28;20151;-60
2021/12/06 09:07:33;;;;;;;3.80;0.50;;;24.00;61.10;;;;;;4160856;28;20060;-61
2021/12/06 09:09:35;;;;;;;2.17;0.60;;;24.00;61.10;;;;;;4159237;28;20539;-61
2021/12/06 09:11:39;;;;;;;4.07;0.60;;;24.00;61.00;;;;;;4159613;28;20049;-62
2021/12/06 09:13:42;;;;;;;2.78;0.68;;;24.00;61.10;;;;;;4159518;28;20164;-62
2021/12/06 09:15:45;;;;;;;0.50;0.40;;;24.00;61.10;;;;;;4159966;28;20144;-61
2021/12/06 09:17:49;;;;;;;1.08;0.57;;;24.00;61.10;;;;;;4160750;28;20064;-60
2021/12/06 09:19:51;;;;;;;0.57;0.47;;;24.00;61.10;;;;;;4158699;28;20155;-60
2021/12/06 09:21:53;;;;;;;1.05;0.57;;;24.00;61.20;;;;;;4158354;28;20107;-59
2021/12/06 09:24:00;;;;;;;1.60;0.40;;;24.00;61.10;;;;;;4157683;28;20037;-61
2021/12/06 09:26:03;;;;;;;1.50;0.40;;;24.00;61.20;;;;;;4160088;28;20854;-60
2021/12/06 09:28:05;;;;;;;1.83;0.50;;;24.00;61.20;;;;;;4159224;28;20049;-61
2021/12/06 09:30:12;;;;;;;2.10;0.65;;;24.00;61.20;;;;;;4160701;28;20075;-63
2021/12/06 09:32:15;;;;;;;1.77;0.43;;;24.00;61.20;;;;;;4159731;28;20781;-60
2021/12/06 09:34:17;;;;;;;2.80;0.50;;;24.00;61.20;;;;;;4160559;28;20056;-63
2021/12/06 09:36:20;;;;;;;2.78;0.55;;;24.00;61.20;;;;;;4159259;28;20051;-58
2021/12/06 09:38:26;;;;;;;5.38;1.15;;;24.00;61.10;;;;;;4161215;28;20048;-61
2021/12/06 09:40:30;;;;;;;1.77;0.65;;;24.00;61.20;;;;;;4160182;28;20128;-60
2021/12/06 09:42:35;;;;;;;4.13;1.05;;;24.00;61.20;;;;;;4157174;28;20053;-59
2021/12/06 09:44:38;;;;;;;11.77;1.02;;;24.00;61.10;;;;;;4158596;28;20546;-58
2021/12/06 09:46:42;;;;;;;0.57;0.47;;;24.00;61.10;;;;;;4159812;28;20049;-61
2021/12/06 09:48:45;;;;;;;5.38;0.77;;;24.00;61.20;;;;;;4159789;28;20049;-59
2021/12/06 09:50:55;;;;;;;11.32;0.90;;;24.00;61.20;;;;;;4159487;28;20094;-60
2021/12/06 09:53:01;;;;;;;3.30;0.90;;;24.00;61.20;;;;;;4159257;28;20045;-58
2021/12/06 09:55:04;;;;;;;0.65;0.43;;;24.00;61.20;;;;;;4158827;28;20060;-59
2021/12/06 09:57:09;;;;;;;0.93;0.50;;;24.00;61.30;;;;;;4159468;28;20049;-59
2021/12/06 09:59:17;;;;;;;1.80;0.90;;;24.00;61.40;;;;;;4160023;28;20061;-60
2021/12/06 10:01:32;;;;;;;0.93;0.52;;;24.00;61.40;;;;;;4158930;28;20057;-60
2021/12/06 10:03:36;;;;;;;4.68;0.88;;;24.00;61.40;;;;;;4159876;28;20052;-62
2021/12/06 10:05:38;;;;;;;2.28;0.50;;;24.00;61.40;;;;;;4158553;28;20053;-58
2021/12/06 10:07:41;;;;;;;1.95;0.60;;;24.00;61.40;;;;;;4160031;28;20049;-58
2021/12/06 10:09:44;;;;;;;0.98;0.50;;;24.00;61.40;;;;;;4158796;28;20863;-59
2021/12/06 10:11:47;;;;;;;0.95;0.45;;;24.00;61.40;;;;;;4160345;28;20045;-60
2021/12/06 10:13:49;;;;;;;;;;;24.00;61.40;;;;;;4157619;28;20429;-58
2021/12/06 10:15:52;;;;;;;0.77;0.40;;;24.00;61.40;;;;;;4159638;28;19947;-59
2021/12/06 10:17:56;;;;;;;0.75;0.52;;;24.00;61.50;;;;;;4158557;28;20053;-56
2021/12/06 10:19:58;;;;;;;1.65;0.50;;;24.00;61.40;;;;;;4159699;28;20534;-58
2021/12/06 10:22:00;;;;;;;0.70;0.40;;;24.00;61.50;;;;;;4158315;28;20049;-59
2021/12/06 10:24:07;;;;;;;3.88;0.57;;;24.00;61.50;;;;;;4159215;28;20087;-59
2021/12/06 10:26:12;;;;;;;0.93;0.43;;;24.00;61.50;;;;;;4160232;28;20722;-60
2021/12/06 10:28:16;;;;;;;1.88;0.50;;;24.00;61.40;;;;;;4157693;28;20127;-59
2021/12/06 10:30:19;;;;;;;0.57;0.30;;;24.00;61.80;;;;;;4159393;28;20168;-58
2021/12/06 10:32:25;;;;;;;2.22;0.40;;;24.00;61.30;;;;;;4160649;28;20053;-59
2021/12/06 10:34:29;;;;;;;0.90;0.45;;;24.00;61.40;;;;;;4160333;28;20063;-59
2021/12/06 10:36:30;;;;;;;;;;;24.00;61.30;;;;;;4161243;28;20614;-60
2021/12/06 10:38:36;;;;;;;0.30;0.30;;;24.00;61.30;;;;;;4161611;28;19929;-59
2021/12/06 10:40:41;;;;;;;0.98;0.50;;;24.00;61.40;;;;;;4161027;28;20053;-59
2021/12/06 10:42:46;;;;;;;3.30;0.38;;;24.00;61.40;;;;;;4160425;28;20053;-58
2021/12/06 10:44:52;;;;;;;2.60;0.70;;;24.00;61.70;;;;;;4160648;28;20696;-58
2021/12/06 10:46:54;;;;;;;0.60;0.30;;;24.00;61.50;;;;;;4161174;28;20752;-60
2021/12/06 10:49:00;;;;;;;0.90;0.50;;;23.90;61.40;;;;;;4160682;28;20608;-58
2021/12/06 10:51:07;;;;;;;0.50;0.43;;;23.90;61.50;;;;;;4160829;28;20052;-58
2021/12/06 10:53:11;;;;;;;0.75;0.45;;;23.90;61.50;;;;;;4160827;28;20466;-58
2021/12/06 10:55:14;;;;;;;0.93;0.50;;;23.90;61.50;;;;;;4161375;28;20045;-58
2021/12/06 10:57:17;;;;;;;0.73;0.43;;;23.90;61.50;;;;;;4159600;28;20052;-59
2021/12/06 10:59:21;;;;;;;2.00;0.57;;;23.90;61.50;;;;;;4161597;28;20105;-58
2021/12/06 11:01:33;;;;;;;0.82;0.47;;;23.90;61.50;;;;;;4160118;28;20047;-58
2021/12/06 11:03:48;;;;;;;1.70;0.60;;;23.90;61.60;;;;;;4158861;28;20057;-60